sensor_id;sensor_type;location;lat;lon;timestamp;P1;durP1;ratioP1;P2;durP2;ratioP2
5295;SDS011;2670;42.720;23.336;2022-10-16T00:00:35;12.60;;;8.10;;
5295;SDS011;2670;42.720;23.336;2022-10-16T00:03:04;12.00;;;6.90;;
5295;SDS011;2670;42.720;23.336;2022-10-16T00:05:31;10.37;;;6.70;;
5295;SDS011;2670;42.720;23.336;2022-10-16T00:07:59;11.63;;;7.60;;
5295;SDS011;2670;42.720;23.336;2022-10-16T00:10:27;11.13;;;6.97;;
5295;SDS011;2670;42.720;23.336;2022-10-16T00:12:54;14.10;;;7.90;;
5295;SDS011;2670;42.720;23.336;2022-10-16T00:15:21;9.70;;;6.67;;
5295;SDS011;2670;42.720;23.336;2022-10-16T00:17:48;15.60;;;7.17;;
5295;SDS011;2670;42.720;23.336;2022-10-16T00:20:14;17.30;;;8.47;;
5295;SDS011;2670;42.720;23.336;2022-10-16T00:22:41;14.03;;;8.70;;
5295;SDS011;2670;42.720;23.336;2022-10-16T00:25:08;14.17;;;8.80;;
5295;SDS011;2670;42.720;23.336;2022-10-16T00:27:36;17.97;;;9.20;;
5295;SDS011;2670;42.720;23.336;2022-10-16T00:30:04;15.60;;;9.97;;
5295;SDS011;2670;42.720;23.336;2022-10-16T00:32:33;14.07;;;9.00;;
5295;SDS011;2670;42.720;23.336;2022-10-16T00:35:00;14.43;;;9.20;;
5295;SDS011;2670;42.720;23.336;2022-10-16T00:37:29;14.37;;;8.90;;
5295;SDS011;2670;42.720;23.336;2022-10-16T00:39:55;12.77;;;8.73;;
5295;SDS011;2670;42.720;23.336;2022-10-16T00:42:22;12.30;;;7.60;;
5295;SDS011;2670;42.720;23.336;2022-10-16T00:44:51;16.90;;;9.63;;
5295;SDS011;2670;42.720;23.336;2022-10-16T00:47:22;15.83;;;8.10;;
5295;SDS011;2670;42.720;23.336;2022-10-16T00:49:55;19.23;;;8.73;;
5295;SDS011;2670;42.720;23.336;2022-10-16T00:52:26;17.90;;;7.97;;
5295;SDS011;2670;42.720;23.336;2022-10-16T00:54:53;15.20;;;8.70;;
5295;SDS011;2670;42.720;23.336;2022-10-16T00:57:21;16.73;;;8.20;;
5295;SDS011;2670;42.720;23.336;2022-10-16T00:59:49;11.90;;;8.27;;
5295;SDS011;2670;42.720;23.336;2022-10-16T01:02:18;14.87;;;6.50;;
5295;SDS011;2670;42.720;23.336;2022-10-16T01:04:46;12.17;;;7.40;;
5295;SDS011;2670;42.720;23.336;2022-10-16T01:07:17;13.90;;;7.60;;
5295;SDS011;2670;42.720;23.336;2022-10-16T01:09:55;13.03;;;7.90;;
5295;SDS011;2670;42.720;23.336;2022-10-16T01:12:34;11.60;;;7.67;;
5295;SDS011;2670;42.720;23.336;2022-10-16T01:15:10;15.53;;;8.50;;
5295;SDS011;2670;42.720;23.336;2022-10-16T01:17:41;16.40;;;7.43;;
5295;SDS011;2670;42.720;23.336;2022-10-16T01:20:13;12.57;;;7.17;;
5295;SDS011;2670;42.720;23.336;2022-10-16T01:22:48;10.87;;;7.30;;
5295;SDS011;2670;42.720;23.336;2022-10-16T01:25:30;10.87;;;6.90;;
5295;SDS011;2670;42.720;23.336;2022-10-16T01:28:07;11.00;;;6.90;;
5295;SDS011;2670;42.720;23.336;2022-10-16T01:30:37;10.90;;;6.70;;
5295;SDS011;2670;42.720;23.336;2022-10-16T01:33:07;9.47;;;6.90;;
5295;SDS011;2670;42.720;23.336;2022-10-16T01:35:41;10.27;;;7.50;;
5295;SDS011;2670;42.720;23.336;2022-10-16T01:38:12;12.40;;;7.87;;
5295;SDS011;2670;42.720;23.336;2022-10-16T01:40:44;10.77;;;6.40;;
5295;SDS011;2670;42.720;23.336;2022-10-16T01:43:17;14.27;;;7.07;;
5295;SDS011;2670;42.720;23.336;2022-10-16T01:45:47;10.17;;;6.50;;
5295;SDS011;2670;42.720;23.336;2022-10-16T01:48:17;13.40;;;7.87;;
5295;SDS011;2670;42.720;23.336;2022-10-16T01:50:49;11.90;;;6.93;;
5295;SDS011;2670;42.720;23.336;2022-10-16T01:53:20;14.57;;;7.60;;
5295;SDS011;2670;42.720;23.336;2022-10-16T01:55:48;16.40;;;7.40;;
5295;SDS011;2670;42.720;23.336;2022-10-16T01:58:20;14.40;;;10.20;;
5295;SDS011;2670;42.720;23.336;2022-10-16T02:00:48;16.30;;;8.57;;
5295;SDS011;2670;42.720;23.336;2022-10-16T02:03:16;13.30;;;7.97;;
5295;SDS011;2670;42.720;23.336;2022-10-16T02:05:45;11.93;;;7.30;;
5295;SDS011;2670;42.720;23.336;2022-10-16T02:08:14;11.97;;;6.53;;
5295;SDS011;2670;42.720;23.336;2022-10-16T02:10:41;11.80;;;6.60;;
5295;SDS011;2670;42.720;23.336;2022-10-16T02:13:09;12.20;;;7.47;;
5295;SDS011;2670;42.720;23.336;2022-10-16T02:15:39;9.40;;;7.13;;
5295;SDS011;2670;42.720;23.336;2022-10-16T02:18:06;9.00;;;7.00;;
5295;SDS011;2670;42.720;23.336;2022-10-16T02:20:36;12.10;;;6.57;;
5295;SDS011;2670;42.720;23.336;2022-10-16T02:23:10;15.93;;;7.87;;
5295;SDS011;2670;42.720;23.336;2022-10-16T02:25:44;13.93;;;8.00;;
5295;SDS011;2670;42.720;23.336;2022-10-16T02:28:14;15.13;;;9.03;;
5295;SDS011;2670;42.720;23.336;2022-10-16T02:30:46;14.87;;;8.67;;
5295;SDS011;2670;42.720;23.336;2022-10-16T02:33:17;16.23;;;8.33;;
5295;SDS011;2670;42.720;23.336;2022-10-16T02:35:48;10.57;;;7.27;;
5295;SDS011;2670;42.720;23.336;2022-10-16T02:38:17;13.60;;;8.33;;
5295;SDS011;2670;42.720;23.336;2022-10-16T02:40:45;11.30;;;6.20;;
5295;SDS011;2670;42.720;23.336;2022-10-16T02:43:12;8.63;;;5.90;;
5295;SDS011;2670;42.720;23.336;2022-10-16T02:45:39;10.17;;;6.50;;
5295;SDS011;2670;42.720;23.336;2022-10-16T02:48:08;11.20;;;6.23;;
5295;SDS011;2670;42.720;23.336;2022-10-16T02:50:35;13.50;;;6.23;;
5295;SDS011;2670;42.720;23.336;2022-10-16T02:53:02;10.27;;;6.37;;
5295;SDS011;2670;42.720;23.336;2022-10-16T02:55:28;9.63;;;6.40;;
5295;SDS011;2670;42.720;23.336;2022-10-16T02:57:58;8.27;;;6.00;;
5295;SDS011;2670;42.720;23.336;2022-10-16T03:00:25;12.90;;;6.00;;
5295;SDS011;2670;42.720;23.336;2022-10-16T03:02:52;7.87;;;5.70;;
5295;SDS011;2670;42.720;23.336;2022-10-16T03:05:22;11.43;;;6.03;;
5295;SDS011;2670;42.720;23.336;2022-10-16T03:07:49;9.53;;;5.60;;
5295;SDS011;2670;42.720;23.336;2022-10-16T03:10:15;9.57;;;5.83;;
5295;SDS011;2670;42.720;23.336;2022-10-16T03:12:42;10.97;;;6.60;;
5295;SDS011;2670;42.720;23.336;2022-10-16T03:15:09;8.90;;;5.90;;
5295;SDS011;2670;42.720;23.336;2022-10-16T03:17:36;10.30;;;6.20;;
5295;SDS011;2670;42.720;23.336;2022-10-16T03:20:03;8.47;;;5.27;;
5295;SDS011;2670;42.720;23.336;2022-10-16T03:22:32;8.03;;;5.47;;
5295;SDS011;2670;42.720;23.336;2022-10-16T03:24:58;8.10;;;5.80;;
5295;SDS011;2670;42.720;23.336;2022-10-16T03:27:25;13.70;;;5.97;;
5295;SDS011;2670;42.720;23.336;2022-10-16T03:29:52;8.77;;;5.50;;
5295;SDS011;2670;42.720;23.336;2022-10-16T03:32:19;9.83;;;6.03;;
5295;SDS011;2670;42.720;23.336;2022-10-16T03:34:46;12.60;;;6.37;;
5295;SDS011;2670;42.720;23.336;2022-10-16T03:37:13;12.17;;;6.60;;
5295;SDS011;2670;42.720;23.336;2022-10-16T03:39:41;17.80;;;6.63;;
5295;SDS011;2670;42.720;23.336;2022-10-16T03:42:08;10.23;;;6.00;;
5295;SDS011;2670;42.720;23.336;2022-10-16T03:44:35;9.43;;;6.20;;
5295;SDS011;2670;42.720;23.336;2022-10-16T03:47:01;10.93;;;6.50;;
5295;SDS011;2670;42.720;23.336;2022-10-16T03:49:28;12.17;;;6.83;;
5295;SDS011;2670;42.720;23.336;2022-10-16T03:52:01;11.53;;;5.63;;
5295;SDS011;2670;42.720;23.336;2022-10-16T03:54:28;12.50;;;5.50;;
5295;SDS011;2670;42.720;23.336;2022-10-16T03:57:02;10.87;;;6.20;;
5295;SDS011;2670;42.720;23.336;2022-10-16T03:59:29;10.20;;;6.30;;
5295;SDS011;2670;42.720;23.336;2022-10-16T04:01:56;13.27;;;6.60;;
5295;SDS011;2670;42.720;23.336;2022-10-16T04:04:22;26.43;;;6.30;;
5295;SDS011;2670;42.720;23.336;2022-10-16T04:06:50;10.10;;;6.73;;
5295;SDS011;2670;42.720;23.336;2022-10-16T04:09:16;12.13;;;6.60;;
5295;SDS011;2670;42.720;23.336;2022-10-16T04:11:43;13.37;;;7.87;;
5295;SDS011;2670;42.720;23.336;2022-10-16T04:14:11;11.73;;;5.77;;
5295;SDS011;2670;42.720;23.336;2022-10-16T04:16:38;14.00;;;6.83;;
5295;SDS011;2670;42.720;23.336;2022-10-16T04:19:05;16.87;;;8.60;;
5295;SDS011;2670;42.720;23.336;2022-10-16T04:21:32;18.10;;;8.17;;
5295;SDS011;2670;42.720;23.336;2022-10-16T04:23:58;23.20;;;11.03;;
5295;SDS011;2670;42.720;23.336;2022-10-16T04:26:25;21.63;;;10.93;;
5295;SDS011;2670;42.720;23.336;2022-10-16T04:28:52;16.47;;;9.13;;
5295;SDS011;2670;42.720;23.336;2022-10-16T04:31:20;16.80;;;9.20;;
5295;SDS011;2670;42.720;23.336;2022-10-16T04:33:47;18.53;;;9.37;;
5295;SDS011;2670;42.720;23.336;2022-10-16T04:36:14;19.70;;;8.83;;
5295;SDS011;2670;42.720;23.336;2022-10-16T04:38:40;10.00;;;7.60;;
5295;SDS011;2670;42.720;23.336;2022-10-16T04:41:07;10.97;;;7.47;;
5295;SDS011;2670;42.720;23.336;2022-10-16T04:43:34;17.20;;;8.03;;
5295;SDS011;2670;42.720;23.336;2022-10-16T04:46:01;19.20;;;8.90;;
5295;SDS011;2670;42.720;23.336;2022-10-16T04:48:31;16.67;;;7.53;;
5295;SDS011;2670;42.720;23.336;2022-10-16T04:50:58;13.97;;;8.07;;
5295;SDS011;2670;42.720;23.336;2022-10-16T04:53:24;18.00;;;8.33;;
5295;SDS011;2670;42.720;23.336;2022-10-16T04:55:51;21.83;;;9.10;;
5295;SDS011;2670;42.720;23.336;2022-10-16T04:58:18;14.53;;;7.53;;
5295;SDS011;2670;42.720;23.336;2022-10-16T05:00:45;19.97;;;8.77;;
5295;SDS011;2670;42.720;23.336;2022-10-16T05:03:12;12.63;;;7.50;;
5295;SDS011;2670;42.720;23.336;2022-10-16T05:05:43;12.47;;;7.73;;
5295;SDS011;2670;42.720;23.336;2022-10-16T05:08:11;9.70;;;5.83;;
5295;SDS011;2670;42.720;23.336;2022-10-16T05:10:38;14.00;;;6.97;;
5295;SDS011;2670;42.720;23.336;2022-10-16T05:13:07;12.77;;;6.83;;
5295;SDS011;2670;42.720;23.336;2022-10-16T05:15:33;12.53;;;8.23;;
5295;SDS011;2670;42.720;23.336;2022-10-16T05:18:00;12.87;;;7.93;;
5295;SDS011;2670;42.720;23.336;2022-10-16T05:20:27;16.10;;;8.93;;
5295;SDS011;2670;42.720;23.336;2022-10-16T05:22:55;16.77;;;7.87;;
5295;SDS011;2670;42.720;23.336;2022-10-16T05:25:22;14.53;;;7.63;;
5295;SDS011;2670;42.720;23.336;2022-10-16T05:27:49;14.27;;;8.50;;
5295;SDS011;2670;42.720;23.336;2022-10-16T05:30:16;20.70;;;8.57;;
5295;SDS011;2670;42.720;23.336;2022-10-16T05:32:45;18.80;;;8.70;;
5295;SDS011;2670;42.720;23.336;2022-10-16T05:35:13;17.30;;;7.87;;
5295;SDS011;2670;42.720;23.336;2022-10-16T05:37:40;11.83;;;7.00;;
5295;SDS011;2670;42.720;23.336;2022-10-16T05:40:09;12.23;;;7.87;;
5295;SDS011;2670;42.720;23.336;2022-10-16T05:42:38;15.20;;;7.47;;
5295;SDS011;2670;42.720;23.336;2022-10-16T05:45:05;19.43;;;6.77;;
5295;SDS011;2670;42.720;23.336;2022-10-16T05:47:33;15.53;;;6.73;;
5295;SDS011;2670;42.720;23.336;2022-10-16T05:50:00;10.70;;;6.00;;
5295;SDS011;2670;42.720;23.336;2022-10-16T05:52:26;11.47;;;6.47;;
5295;SDS011;2670;42.720;23.336;2022-10-16T05:54:53;7.97;;;5.33;;
5295;SDS011;2670;42.720;23.336;2022-10-16T05:57:22;9.30;;;5.70;;
5295;SDS011;2670;42.720;23.336;2022-10-16T05:59:48;11.60;;;6.20;;
5295;SDS011;2670;42.720;23.336;2022-10-16T06:02:15;15.80;;;9.53;;
5295;SDS011;2670;42.720;23.336;2022-10-16T06:04:42;15.87;;;8.50;;
5295;SDS011;2670;42.720;23.336;2022-10-16T06:07:09;15.17;;;8.40;;
5295;SDS011;2670;42.720;23.336;2022-10-16T06:09:36;11.53;;;7.53;;
5295;SDS011;2670;42.720;23.336;2022-10-16T06:12:03;17.30;;;7.57;;
5295;SDS011;2670;42.720;23.336;2022-10-16T06:14:31;11.10;;;7.03;;
5295;SDS011;2670;42.720;23.336;2022-10-16T06:16:58;11.87;;;7.90;;
5295;SDS011;2670;42.720;23.336;2022-10-16T06:19:25;9.67;;;7.23;;
5295;SDS011;2670;42.720;23.336;2022-10-16T06:21:52;9.53;;;6.83;;
5295;SDS011;2670;42.720;23.336;2022-10-16T06:24:18;14.87;;;7.20;;
5295;SDS011;2670;42.720;23.336;2022-10-16T06:26:45;11.60;;;6.60;;
5295;SDS011;2670;42.720;23.336;2022-10-16T06:29:12;17.27;;;8.70;;
5295;SDS011;2670;42.720;23.336;2022-10-16T06:31:40;13.30;;;8.10;;
5295;SDS011;2670;42.720;23.336;2022-10-16T06:34:08;11.63;;;7.90;;
5295;SDS011;2670;42.720;23.336;2022-10-16T06:36:36;11.53;;;8.17;;
5295;SDS011;2670;42.720;23.336;2022-10-16T06:39:03;15.37;;;8.37;;
5295;SDS011;2670;42.720;23.336;2022-10-16T06:41:32;11.53;;;8.43;;
5295;SDS011;2670;42.720;23.336;2022-10-16T06:43:59;13.40;;;8.33;;
5295;SDS011;2670;42.720;23.336;2022-10-16T06:46:27;12.60;;;8.10;;
5295;SDS011;2670;42.720;23.336;2022-10-16T06:48:55;13.27;;;8.53;;
5295;SDS011;2670;42.720;23.336;2022-10-16T06:51:22;13.90;;;8.80;;
5295;SDS011;2670;42.720;23.336;2022-10-16T06:53:51;33.37;;;9.30;;
5295;SDS011;2670;42.720;23.336;2022-10-16T06:56:22;10.40;;;7.63;;
5295;SDS011;2670;42.720;23.336;2022-10-16T06:58:50;13.73;;;8.53;;
5295;SDS011;2670;42.720;23.336;2022-10-16T07:01:18;16.33;;;8.70;;
5295;SDS011;2670;42.720;23.336;2022-10-16T07:03:46;16.37;;;10.43;;
5295;SDS011;2670;42.720;23.336;2022-10-16T07:06:15;20.23;;;11.70;;
5295;SDS011;2670;42.720;23.336;2022-10-16T07:08:44;22.40;;;11.43;;
5295;SDS011;2670;42.720;23.336;2022-10-16T07:11:14;17.83;;;10.27;;
5295;SDS011;2670;42.720;23.336;2022-10-16T07:13:42;16.03;;;9.37;;
5295;SDS011;2670;42.720;23.336;2022-10-16T07:16:10;16.50;;;10.13;;
5295;SDS011;2670;42.720;23.336;2022-10-16T07:18:38;17.83;;;10.70;;
5295;SDS011;2670;42.720;23.336;2022-10-16T07:21:08;15.23;;;9.60;;
5295;SDS011;2670;42.720;23.336;2022-10-16T07:23:40;18.07;;;10.73;;
5295;SDS011;2670;42.720;23.336;2022-10-16T07:26:08;20.50;;;12.17;;
5295;SDS011;2670;42.720;23.336;2022-10-16T07:28:44;20.77;;;11.03;;
5295;SDS011;2670;42.720;23.336;2022-10-16T07:31:12;21.20;;;10.60;;
5295;SDS011;2670;42.720;23.336;2022-10-16T07:33:40;12.90;;;8.80;;
5295;SDS011;2670;42.720;23.336;2022-10-16T07:36:09;14.37;;;7.97;;
5295;SDS011;2670;42.720;23.336;2022-10-16T07:38:36;15.13;;;9.87;;
5295;SDS011;2670;42.720;23.336;2022-10-16T07:41:05;15.47;;;9.90;;
5295;SDS011;2670;42.720;23.336;2022-10-16T07:43:33;13.80;;;9.50;;
5295;SDS011;2670;42.720;23.336;2022-10-16T07:46:00;22.77;;;9.93;;
5295;SDS011;2670;42.720;23.336;2022-10-16T07:48:28;15.13;;;8.80;;
5295;SDS011;2670;42.720;23.336;2022-10-16T07:50:56;17.03;;;9.80;;
5295;SDS011;2670;42.720;23.336;2022-10-16T07:53:24;17.97;;;8.90;;
5295;SDS011;2670;42.720;23.336;2022-10-16T07:55:54;11.87;;;7.83;;
5295;SDS011;2670;42.720;23.336;2022-10-16T07:58:23;20.83;;;8.37;;
5295;SDS011;2670;42.720;23.336;2022-10-16T08:00:50;14.53;;;8.73;;
5295;SDS011;2670;42.720;23.336;2022-10-16T08:03:17;15.40;;;8.80;;
5295;SDS011;2670;42.720;23.336;2022-10-16T08:05:44;14.90;;;7.63;;
5295;SDS011;2670;42.720;23.336;2022-10-16T08:08:11;18.33;;;8.10;;
5295;SDS011;2670;42.720;23.336;2022-10-16T08:10:39;15.27;;;9.60;;
5295;SDS011;2670;42.720;23.336;2022-10-16T08:13:07;15.67;;;8.57;;
5295;SDS011;2670;42.720;23.336;2022-10-16T08:15:34;19.67;;;8.77;;
5295;SDS011;2670;42.720;23.336;2022-10-16T08:18:02;15.03;;;9.13;;
5295;SDS011;2670;42.720;23.336;2022-10-16T08:20:30;9.63;;;7.70;;
5295;SDS011;2670;42.720;23.336;2022-10-16T08:22:58;13.27;;;7.63;;
5295;SDS011;2670;42.720;23.336;2022-10-16T08:25:25;15.47;;;9.03;;
5295;SDS011;2670;42.720;23.336;2022-10-16T08:27:52;13.23;;;8.53;;
5295;SDS011;2670;42.720;23.336;2022-10-16T08:30:21;13.37;;;7.40;;
5295;SDS011;2670;42.720;23.336;2022-10-16T08:32:49;18.03;;;8.33;;
5295;SDS011;2670;42.720;23.336;2022-10-16T08:35:16;11.43;;;7.20;;
5295;SDS011;2670;42.720;23.336;2022-10-16T08:37:43;9.97;;;7.10;;
5295;SDS011;2670;42.720;23.336;2022-10-16T08:40:14;10.10;;;7.03;;
5295;SDS011;2670;42.720;23.336;2022-10-16T08:42:52;9.53;;;6.37;;
5295;SDS011;2670;42.720;23.336;2022-10-16T08:45:36;11.83;;;6.13;;
5295;SDS011;2670;42.720;23.336;2022-10-16T08:48:14;11.73;;;6.17;;
5295;SDS011;2670;42.720;23.336;2022-10-16T08:50:46;8.60;;;6.10;;
5295;SDS011;2670;42.720;23.336;2022-10-16T08:53:15;7.67;;;5.80;;
5295;SDS011;2670;42.720;23.336;2022-10-16T08:55:45;7.73;;;4.87;;
5295;SDS011;2670;42.720;23.336;2022-10-16T08:58:16;12.73;;;5.50;;
5295;SDS011;2670;42.720;23.336;2022-10-16T09:00:46;5.97;;;4.00;;
5295;SDS011;2670;42.720;23.336;2022-10-16T09:03:31;5.10;;;3.80;;
5295;SDS011;2670;42.720;23.336;2022-10-16T09:06:09;7.50;;;4.53;;
5295;SDS011;2670;42.720;23.336;2022-10-16T09:08:47;10.83;;;4.63;;
5295;SDS011;2670;42.720;23.336;2022-10-16T09:11:27;7.50;;;4.57;;
5295;SDS011;2670;42.720;23.336;2022-10-16T09:14:07;6.30;;;4.30;;
5295;SDS011;2670;42.720;23.336;2022-10-16T09:16:53;5.77;;;3.67;;
5295;SDS011;2670;42.720;23.336;2022-10-16T09:19:28;7.70;;;4.70;;
5295;SDS011;2670;42.720;23.336;2022-10-16T09:22:01;5.67;;;3.90;;
5295;SDS011;2670;42.720;23.336;2022-10-16T09:24:37;5.40;;;4.10;;
5295;SDS011;2670;42.720;23.336;2022-10-16T09:29:53;7.07;;;4.20;;
5295;SDS011;2670;42.720;23.336;2022-10-16T09:32:21;6.17;;;4.73;;
5295;SDS011;2670;42.720;23.336;2022-10-16T09:34:49;7.73;;;4.43;;
5295;SDS011;2670;42.720;23.336;2022-10-16T09:37:19;7.13;;;4.17;;
5295;SDS011;2670;42.720;23.336;2022-10-16T09:39:49;4.93;;;3.43;;
5295;SDS011;2670;42.720;23.336;2022-10-16T09:42:17;12.30;;;3.83;;
5295;SDS011;2670;42.720;23.336;2022-10-16T09:44:47;4.43;;;3.80;;
5295;SDS011;2670;42.720;23.336;2022-10-16T09:47:16;6.93;;;3.50;;
5295;SDS011;2670;42.720;23.336;2022-10-16T09:49:54;8.20;;;3.80;;
5295;SDS011;2670;42.720;23.336;2022-10-16T09:52:23;6.50;;;4.10;;
5295;SDS011;2670;42.720;23.336;2022-10-16T09:54:51;4.20;;;3.53;;
5295;SDS011;2670;42.720;23.336;2022-10-16T09:57:18;6.07;;;3.63;;
5295;SDS011;2670;42.720;23.336;2022-10-16T09:59:46;10.10;;;4.67;;
5295;SDS011;2670;42.720;23.336;2022-10-16T10:02:14;6.47;;;4.17;;
5295;SDS011;2670;42.720;23.336;2022-10-16T10:04:44;6.70;;;3.50;;
5295;SDS011;2670;42.720;23.336;2022-10-16T10:07:18;8.90;;;4.23;;
5295;SDS011;2670;42.720;23.336;2022-10-16T10:09:50;5.93;;;4.03;;
5295;SDS011;2670;42.720;23.336;2022-10-16T10:12:17;5.93;;;4.13;;
5295;SDS011;2670;42.720;23.336;2022-10-16T10:14:47;14.73;;;6.80;;
5295;SDS011;2670;42.720;23.336;2022-10-16T10:17:16;5.40;;;4.20;;
5295;SDS011;2670;42.720;23.336;2022-10-16T10:19:46;6.87;;;4.53;;
5295;SDS011;2670;42.720;23.336;2022-10-16T10:22:21;10.47;;;4.37;;
5295;SDS011;2670;42.720;23.336;2022-10-16T10:25:12;6.67;;;4.60;;
5295;SDS011;2670;42.720;23.336;2022-10-16T10:27:52;7.97;;;4.20;;
5295;SDS011;2670;42.720;23.336;2022-10-16T10:30:35;8.23;;;3.63;;
5295;SDS011;2670;42.720;23.336;2022-10-16T10:33:14;5.40;;;3.87;;
5295;SDS011;2670;42.720;23.336;2022-10-16T10:35:52;16.97;;;7.60;;
5295;SDS011;2670;42.720;23.336;2022-10-16T10:38:33;13.03;;;4.53;;
5295;SDS011;2670;42.720;23.336;2022-10-16T10:41:14;6.07;;;4.33;;
5295;SDS011;2670;42.720;23.336;2022-10-16T10:44:01;6.23;;;3.67;;
5295;SDS011;2670;42.720;23.336;2022-10-16T10:46:35;8.33;;;3.60;;
5295;SDS011;2670;42.720;23.336;2022-10-16T10:49:10;4.13;;;3.37;;
5295;SDS011;2670;42.720;23.336;2022-10-16T10:51:49;9.13;;;4.03;;
5295;SDS011;2670;42.720;23.336;2022-10-16T10:54:30;10.50;;;4.13;;
5295;SDS011;2670;42.720;23.336;2022-10-16T10:57:07;6.37;;;3.67;;
5295;SDS011;2670;42.720;23.336;2022-10-16T10:59:42;8.13;;;4.00;;
5295;SDS011;2670;42.720;23.336;2022-10-16T11:02:21;8.90;;;3.87;;
5295;SDS011;2670;42.720;23.336;2022-10-16T11:04:56;9.13;;;4.30;;
5295;SDS011;2670;42.720;23.336;2022-10-16T11:07:38;4.20;;;3.23;;
5295;SDS011;2670;42.720;23.336;2022-10-16T11:10:14;5.57;;;3.93;;
5295;SDS011;2670;42.720;23.336;2022-10-16T11:12:45;6.30;;;3.63;;
5295;SDS011;2670;42.720;23.336;2022-10-16T11:15:16;5.57;;;4.13;;
5295;SDS011;2670;42.720;23.336;2022-10-16T11:17:48;5.83;;;4.23;;
5295;SDS011;2670;42.720;23.336;2022-10-16T11:20:19;13.00;;;3.93;;
5295;SDS011;2670;42.720;23.336;2022-10-16T11:22:50;4.27;;;3.50;;
5295;SDS011;2670;42.720;23.336;2022-10-16T11:25:23;8.50;;;4.10;;
5295;SDS011;2670;42.720;23.336;2022-10-16T11:27:54;6.00;;;3.90;;
5295;SDS011;2670;42.720;23.336;2022-10-16T11:30:27;5.83;;;3.83;;
5295;SDS011;2670;42.720;23.336;2022-10-16T11:33:00;6.70;;;3.90;;
5295;SDS011;2670;42.720;23.336;2022-10-16T11:35:41;7.67;;;4.73;;
5295;SDS011;2670;42.720;23.336;2022-10-16T11:38:12;7.63;;;3.70;;
5295;SDS011;2670;42.720;23.336;2022-10-16T11:40:48;7.23;;;3.70;;
5295;SDS011;2670;42.720;23.336;2022-10-16T11:43:21;5.77;;;3.73;;
5295;SDS011;2670;42.720;23.336;2022-10-16T11:45:51;3.80;;;3.30;;
5295;SDS011;2670;42.720;23.336;2022-10-16T11:48:23;4.90;;;3.40;;
5295;SDS011;2670;42.720;23.336;2022-10-16T11:50:54;4.07;;;3.43;;
5295;SDS011;2670;42.720;23.336;2022-10-16T11:53:31;5.27;;;4.07;;
5295;SDS011;2670;42.720;23.336;2022-10-16T11:56:07;8.53;;;4.00;;
5295;SDS011;2670;42.720;23.336;2022-10-16T11:58:35;11.00;;;3.23;;
5295;SDS011;2670;42.720;23.336;2022-10-16T12:01:13;4.67;;;3.60;;
5295;SDS011;2670;42.720;23.336;2022-10-16T12:03:45;10.20;;;4.73;;
5295;SDS011;2670;42.720;23.336;2022-10-16T12:06:23;4.73;;;3.60;;
5295;SDS011;2670;42.720;23.336;2022-10-16T12:08:57;4.50;;;3.17;;
5295;SDS011;2670;42.720;23.336;2022-10-16T12:11:37;5.87;;;3.70;;
5295;SDS011;2670;42.720;23.336;2022-10-16T12:14:18;4.40;;;3.63;;
5295;SDS011;2670;42.720;23.336;2022-10-16T12:17:00;6.00;;;3.70;;
5295;SDS011;2670;42.720;23.336;2022-10-16T12:19:30;5.20;;;3.17;;
5295;SDS011;2670;42.720;23.336;2022-10-16T12:21:58;4.83;;;3.73;;
5295;SDS011;2670;42.720;23.336;2022-10-16T12:24:31;6.60;;;3.40;;
5295;SDS011;2670;42.720;23.336;2022-10-16T12:27:03;7.37;;;3.80;;
5295;SDS011;2670;42.720;23.336;2022-10-16T12:29:33;5.40;;;2.63;;
5295;SDS011;2670;42.720;23.336;2022-10-16T12:32:03;5.47;;;3.03;;
5295;SDS011;2670;42.720;23.336;2022-10-16T12:34:35;4.80;;;3.60;;
5295;SDS011;2670;42.720;23.336;2022-10-16T12:37:09;7.53;;;3.50;;
5295;SDS011;2670;42.720;23.336;2022-10-16T12:39:39;8.40;;;3.13;;
5295;SDS011;2670;42.720;23.336;2022-10-16T12:42:19;6.30;;;3.70;;
5295;SDS011;2670;42.720;23.336;2022-10-16T12:44:49;6.00;;;3.03;;
5295;SDS011;2670;42.720;23.336;2022-10-16T12:47:23;3.57;;;3.00;;
5295;SDS011;2670;42.720;23.336;2022-10-16T12:50:01;6.13;;;3.40;;
5295;SDS011;2670;42.720;23.336;2022-10-16T12:52:28;6.83;;;3.97;;
5295;SDS011;2670;42.720;23.336;2022-10-16T12:55:02;4.20;;;3.10;;
5295;SDS011;2670;42.720;23.336;2022-10-16T12:57:37;7.17;;;3.57;;
5295;SDS011;2670;42.720;23.336;2022-10-16T13:00:19;4.90;;;3.60;;
5295;SDS011;2670;42.720;23.336;2022-10-16T13:02:58;6.30;;;3.20;;
5295;SDS011;2670;42.720;23.336;2022-10-16T13:05:52;5.23;;;3.00;;
5295;SDS011;2670;42.720;23.336;2022-10-16T13:08:39;4.07;;;3.07;;
5295;SDS011;2670;42.720;23.336;2022-10-16T13:11:25;5.43;;;3.30;;
5295;SDS011;2670;42.720;23.336;2022-10-16T13:14:01;4.63;;;3.60;;
5295;SDS011;2670;42.720;23.336;2022-10-16T13:16:44;3.90;;;2.83;;
5295;SDS011;2670;42.720;23.336;2022-10-16T13:19:21;5.33;;;2.93;;
5295;SDS011;2670;42.720;23.336;2022-10-16T13:21:56;9.00;;;3.50;;
5295;SDS011;2670;42.720;23.336;2022-10-16T13:24:39;6.20;;;3.03;;
5295;SDS011;2670;42.720;23.336;2022-10-16T13:27:19;2.70;;;2.30;;
5295;SDS011;2670;42.720;23.336;2022-10-16T13:30:01;2.80;;;2.33;;
5295;SDS011;2670;42.720;23.336;2022-10-16T13:32:35;2.73;;;2.30;;
5295;SDS011;2670;42.720;23.336;2022-10-16T13:35:02;3.17;;;2.40;;
5295;SDS011;2670;42.720;23.336;2022-10-16T13:37:30;4.97;;;2.63;;
5295;SDS011;2670;42.720;23.336;2022-10-16T13:40:06;7.93;;;2.80;;
5295;SDS011;2670;42.720;23.336;2022-10-16T13:42:44;3.53;;;2.30;;
5295;SDS011;2670;42.720;23.336;2022-10-16T13:45:18;4.10;;;2.10;;
5295;SDS011;2670;42.720;23.336;2022-10-16T13:47:46;3.90;;;2.43;;
5295;SDS011;2670;42.720;23.336;2022-10-16T13:50:14;6.70;;;2.53;;
5295;SDS011;2670;42.720;23.336;2022-10-16T13:52:43;4.90;;;2.80;;
5295;SDS011;2670;42.720;23.336;2022-10-16T13:55:10;3.97;;;2.53;;
5295;SDS011;2670;42.720;23.336;2022-10-16T13:57:38;3.23;;;2.03;;
5295;SDS011;2670;42.720;23.336;2022-10-16T14:00:18;5.30;;;3.30;;
5295;SDS011;2670;42.720;23.336;2022-10-16T14:02:49;3.07;;;2.43;;
5295;SDS011;2670;42.720;23.336;2022-10-16T14:05:19;6.60;;;3.00;;
5295;SDS011;2670;42.720;23.336;2022-10-16T14:07:47;3.90;;;2.70;;
5295;SDS011;2670;42.720;23.336;2022-10-16T14:10:20;7.83;;;3.17;;
5295;SDS011;2670;42.720;23.336;2022-10-16T14:12:57;5.63;;;3.20;;
5295;SDS011;2670;42.720;23.336;2022-10-16T14:15:27;6.47;;;3.20;;
5295;SDS011;2670;42.720;23.336;2022-10-16T14:17:55;3.90;;;3.00;;
5295;SDS011;2670;42.720;23.336;2022-10-16T14:20:25;7.10;;;3.43;;
5295;SDS011;2670;42.720;23.336;2022-10-16T14:22:58;5.63;;;3.50;;
5295;SDS011;2670;42.720;23.336;2022-10-16T14:25:27;6.20;;;3.30;;
5295;SDS011;2670;42.720;23.336;2022-10-16T14:28:02;4.27;;;3.17;;
5295;SDS011;2670;42.720;23.336;2022-10-16T14:30:32;6.07;;;3.10;;
5295;SDS011;2670;42.720;23.336;2022-10-16T14:33:01;4.70;;;3.30;;
5295;SDS011;2670;42.720;23.336;2022-10-16T14:35:32;8.83;;;2.97;;
5295;SDS011;2670;42.720;23.336;2022-10-16T14:38:01;4.37;;;3.20;;
5295;SDS011;2670;42.720;23.336;2022-10-16T14:40:30;4.23;;;3.00;;
5295;SDS011;2670;42.720;23.336;2022-10-16T14:42:58;7.20;;;3.77;;
5295;SDS011;2670;42.720;23.336;2022-10-16T14:45:33;3.97;;;2.97;;
5295;SDS011;2670;42.720;23.336;2022-10-16T14:48:02;4.10;;;3.20;;
5295;SDS011;2670;42.720;23.336;2022-10-16T14:50:32;7.63;;;2.80;;
5295;SDS011;2670;42.720;23.336;2022-10-16T14:52:59;4.40;;;2.90;;
5295;SDS011;2670;42.720;23.336;2022-10-16T14:55:26;5.20;;;3.53;;
5295;SDS011;2670;42.720;23.336;2022-10-16T14:57:53;4.53;;;2.80;;
5295;SDS011;2670;42.720;23.336;2022-10-16T15:00:20;5.70;;;3.40;;
5295;SDS011;2670;42.720;23.336;2022-10-16T15:02:50;5.23;;;3.67;;
5295;SDS011;2670;42.720;23.336;2022-10-16T15:05:18;8.67;;;3.90;;
5295;SDS011;2670;42.720;23.336;2022-10-16T15:07:47;5.93;;;3.40;;
5295;SDS011;2670;42.720;23.336;2022-10-16T15:10:15;5.20;;;3.53;;
5295;SDS011;2670;42.720;23.336;2022-10-16T15:12:44;5.30;;;3.50;;
5295;SDS011;2670;42.720;23.336;2022-10-16T15:15:21;6.00;;;3.93;;